Time,TemperatureF,DewpointF,PressureIn,WindDirection,WindDirectionDegrees,WindSpeedMPH,WindSpeedGustMPH,Humidity,HourlyPrecipIn,Conditions,Clouds,dailyrainin,SoftwareType,DateUTC
2013-09-09 00:12:00,50.0,47.0,-100.00,West,272,0.0,1.0,91,0.00,,,0.05,,2013-09-09 06:12:00,
2013-09-09 00:21:00,50.0,48.0,-100.00,West,272,0.0,0.0,92,0.00,,,0.05,,2013-09-09 06:21:00,
2013-09-09 00:52:00,49.0,47.0,-100.00,West,272,0.0,0.0,92,0.00,,,0.05,,2013-09-09 06:52:00,
2013-09-09 01:11:00,48.0,46.0,-100.00,West,272,0.0,0.0,92,0.00,,,0.05,,2013-09-09 07:11:00,
2013-09-09 01:21:00,48.0,46.0,-100.00,West,272,0.0,0.0,92,0.00,,,0.05,,2013-09-09 07:21:00,
2013-09-09 01:52:00,47.0,45.0,-100.00,West,272,0.0,1.0,93,0.00,,,0.05,,2013-09-09 07:52:00,
2013-09-09 02:11:00,47.0,45.0,-100.00,West,272,0.0,0.0,94,0.00,,,0.05,,2013-09-09 08:11:00,
2013-09-09 02:21:00,47.0,45.0,-100.00,West,272,0.0,0.0,94,0.00,,,0.05,,2013-09-09 08:21:00,
2013-09-09 02:52:00,47.0,45.0,-100.00,West,272,0.0,0.0,94,0.01,,,0.06,,2013-09-09 08:52:00,
2013-09-09 03:11:00,46.0,44.0,-100.00,West,272,0.0,0.0,94,0.01,,,0.06,,2013-09-09 09:11:00,
2013-09-09 03:22:00,46.0,44.0,-100.00,West,272,0.0,0.0,94,0.01,,,0.06,,2013-09-09 09:22:00,
2013-09-09 03:53:00,45.0,43.0,-100.00,West,276,0.0,1.0,94,0.00,,,0.06,,2013-09-09 09:53:00,
2013-09-09 04:12:00,45.0,44.0,-100.00,West,277,0.0,1.0,95,0.00,,,0.06,,2013-09-09 10:12:00,
2013-09-09 04:23:00,46.0,45.0,-100.00,West,276,0.0,0.0,95,0.00,,,0.06,,2013-09-09 10:23:00,
2013-09-09 04:52:00,46.0,45.0,-100.00,West,276,0.0,0.0,95,0.00,,,0.06,,2013-09-09 10:52:00,
2013-09-09 05:11:00,45.0,44.0,-100.00,West,276,0.0,1.0,95,0.00,,,0.06,,2013-09-09 11:11:00,
2013-09-09 05:21:00,45.0,44.0,-100.00,West,276,0.0,1.0,95,0.00,,,0.06,,2013-09-09 11:21:00,
2013-09-09 05:52:00,45.0,44.0,-100.00,West,276,0.0,1.0,95,0.00,,,0.06,,2013-09-09 11:52:00,
2013-09-09 06:11:00,45.0,44.0,-100.00,West,276,0.0,0.0,95,0.00,,,0.06,,2013-09-09 12:11:00,
2013-09-09 06:22:00,45.0,44.0,-100.00,West,276,0.0,1.0,95,0.00,,,0.06,,2013-09-09 12:22:00,
2013-09-09 06:52:00,45.0,44.0,-100.00,West,276,0.0,0.0,95,0.00,,,0.06,,2013-09-09 12:52:00,
2013-09-09 07:11:00,45.0,44.0,-100.00,West,278,0.0,1.0,95,0.00,,,0.06,,2013-09-09 13:11:00,
2013-09-09 07:21:00,45.0,44.0,-100.00,West,278,0.0,1.0,96,0.00,,,0.06,,2013-09-09 13:21:00,
2013-09-09 07:52:00,45.0,44.0,-100.00,West,278,0.0,1.0,96,0.00,,,0.06,,2013-09-09 13:52:00,
2013-09-09 08:12:00,45.0,44.0,-100.00,West,278,0.0,0.0,95,0.00,,,0.06,,2013-09-09 14:12:00,
2013-09-09 08:21:00,45.0,44.0,-100.00,West,278,0.0,1.0,95,0.00,,,0.06,,2013-09-09 14:21:00,
2013-09-09 08:52:00,46.0,45.0,-100.00,West,278,0.0,1.0,95,0.00,,,0.06,,2013-09-09 14:52:00,
2013-09-09 09:11:00,46.0,45.0,-100.00,West,278,0.0,1.0,96,0.00,,,0.06,,2013-09-09 15:11:00,
2013-09-09 09:22:00,46.0,45.0,-100.00,West,278,0.0,2.0,96,0.00,,,0.06,,2013-09-09 15:22:00,
2013-09-09 09:53:00,46.0,45.0,-100.00,SE,145,0.0,1.0,95,0.00,,,0.06,,2013-09-09 15:53:00,
2013-09-09 10:13:00,47.0,46.0,-100.00,SE,145,0.0,1.0,96,0.00,,,0.06,,2013-09-09 16:13:00,
2013-09-09 10:24:00,47.0,46.0,-100.00,SE,143,0.0,1.0,96,0.00,,,0.06,,2013-09-09 16:24:00,
2013-09-09 10:54:00,48.0,47.0,-100.00,North,359,0.0,2.0,96,0.00,,,0.06,,2013-09-09 16:54:00,
2013-09-09 11:12:00,49.0,48.0,-100.00,NNW,328,1.0,2.0,95,0.00,,,0.06,,2013-09-09 17:12:00,
2013-09-09 11:23:00,49.0,47.0,-100.00,NNW,328,2.0,3.0,93,0.00,,,0.06,,2013-09-09 17:23:00,
2013-09-09 11:53:00,52.0,49.0,-100.00,WNW,282,1.0,2.0,90,0.00,,,0.06,,2013-09-09 17:53:00,
2013-09-09 12:13:00,53.0,49.0,-100.00,West,270,1.0,3.0,85,0.00,,,0.06,,2013-09-09 18:13:00,
2013-09-09 12:21:00,55.0,50.0,-100.00,WSW,256,0.0,3.0,82,0.00,,,0.06,,2013-09-09 18:21:00,
2013-09-09 12:52:00,59.0,48.0,-100.00,South,173,0.0,3.0,67,0.00,,,0.06,,2013-09-09 18:52:00,
2013-09-09 13:11:00,61.0,50.0,-100.00,WSW,243,0.0,4.0,66,0.00,,,0.06,,2013-09-09 19:11:00,
2013-09-09 13:22:00,61.0,49.0,-100.00,South,183,1.0,3.0,64,0.00,,,0.06,,2013-09-09 19:22:00,
2013-09-09 13:42:00,63.0,50.0,-100.00,South,183,0.0,3.0,63,0.00,,,0.06,,2013-09-09 19:42:00,
2013-09-09 13:52:00,64.0,51.0,-100.00,SSW,197,1.0,3.0,63,0.00,,,0.06,,2013-09-09 19:52:00,
2013-09-09 14:12:00,64.0,51.0,-100.00,East,87,1.0,3.0,63,0.00,,,0.06,,2013-09-09 20:12:00,
2013-09-09 14:21:00,64.0,49.0,-100.00,East,97,1.0,5.0,58,0.00,,,0.06,,2013-09-09 20:21:00,
2013-09-09 14:53:00,64.0,50.0,-100.00,SSE,157,0.0,1.0,60,0.00,,,0.06,,2013-09-09 20:53:00,
2013-09-09 15:12:00,65.0,51.0,-100.00,SSE,157,1.0,3.0,60,0.00,,,0.06,,2013-09-09 21:12:00,
2013-09-09 15:22:00,66.0,49.0,-100.00,South,176,0.0,5.0,54,0.00,,,0.06,,2013-09-09 21:22:00,
2013-09-09 15:54:00,66.0,47.0,-100.00,West,267,0.0,4.0,50,0.00,,,0.06,,2013-09-09 21:54:00,
2013-09-09 16:24:00,67.0,46.0,-100.00,West,267,0.0,4.0,47,0.00,,,0.06,,2013-09-09 22:24:00,
2013-09-09 16:54:00,69.0,46.0,-100.00,WSW,257,4.0,9.0,44,0.00,,,0.06,,2013-09-09 22:54:00,
2013-09-09 17:12:00,69.0,46.0,-100.00,NNW,341,3.0,7.0,43,0.00,,,0.06,,2013-09-09 23:12:00,
2013-09-09 17:22:00,68.0,46.0,-100.00,West,274,1.0,6.0,46,0.00,,,0.06,,2013-09-09 23:22:00,
2013-09-09 17:52:00,69.0,46.0,-100.00,West,262,1.0,3.0,44,0.00,,,0.06,,2013-09-09 23:52:00,
2013-09-09 18:12:00,69.0,47.0,-100.00,West,262,0.0,1.0,46,0.00,,,0.06,,2013-09-10 00:12:00,
2013-09-09 18:21:00,70.0,46.0,-100.00,West,262,1.0,3.0,43,0.00,,,0.06,,2013-09-10 00:21:00,
2013-09-09 18:42:00,70.0,47.0,-100.00,WSW,258,1.0,4.0,44,0.00,,,0.06,,2013-09-10 00:42:00,
2013-09-09 18:52:00,69.0,46.0,-100.00,WNW,293,1.0,3.0,44,0.00,,,0.06,,2013-09-10 00:52:00,
2013-09-09 19:11:00,68.0,46.0,-100.00,WNW,285,0.0,2.0,46,0.00,,,0.06,,2013-09-10 01:11:00,
2013-09-09 19:21:00,66.0,47.0,-100.00,WNW,285,0.0,1.0,51,0.00,,,0.06,,2013-09-10 01:21:00,
2013-09-09 19:42:00,63.0,49.0,-100.00,WNW,284,0.0,0.0,61,0.00,,,0.06,,2013-09-10 01:42:00,
2013-09-09 20:42:00,56.0,50.0,-100.00,NW,325,1.0,2.0,81,0.00,,,0.06,,2013-09-10 02:42:00,
2013-09-09 21:12:00,54.0,48.0,-100.00,NW,325,0.0,1.0,81,0.00,,,0.06,,2013-09-10 03:12:00,
2013-09-09 21:22:00,53.0,48.0,-100.00,NW,325,0.0,1.0,83,0.00,,,0.01,,2013-09-10 03:22:00,
2013-09-09 21:54:00,52.0,48.0,-100.00,NW,325,0.0,1.0,87,0.00,,,0.01,,2013-09-10 03:54:00,
2013-09-09 22:24:00,51.0,46.0,-100.00,NW,325,0.0,1.0,83,0.00,,,0.01,,2013-09-10 04:24:00,
2013-09-09 22:53:00,52.0,45.0,-100.00,NW,325,0.0,0.0,77,0.00,,,0.01,,2013-09-10 04:53:00,
2013-09-09 23:23:00,52.0,45.0,-100.00,NW,325,0.0,1.0,77,0.00,,,0.01,,2013-09-10 05:23:00,
2013-09-09 23:53:00,52.0,45.0,-100.00,NW,325,0.0,1.0,76,0.00,,,0.01,,2013-09-10 05:53:00,